Airport ID:K63S
Update Time (UTC):30/06/2022 11:10
Wind Speed (Knots):2
Wind Direction (Magnetic):30
Temperature (°C):9
Dew Point (°C):7
Humidity (%):93
Altimeter (inHg):30.14
Density Altitude (Feet):
Visibility:10+
Clouds (Hundreds of feet):FEW060
Present Weather:
METAR:METAR K63S 301110Z AUTO 00000KT 10SM FEW060 09/08 A3014 RMK A01

The data displayed is for advisory purposes only and is not to be used for flight planning or operations.